sensor_id;sensor_type;location;lat;lon;timestamp;pressure;altitude;pressure_sealevel;temperature;humidity
59367;BME280;45163;47.690;11.770;2023-08-24T00:00:39;93713.75;;;20.92;100.00
59367;BME280;45163;47.690;11.770;2023-08-24T00:03:06;93713.38;;;20.78;100.00
59367;BME280;45163;47.690;11.770;2023-08-24T00:05:33;93707.13;;;20.83;100.00
59367;BME280;45163;47.690;11.770;2023-08-24T00:08:00;93698.25;;;20.79;100.00
59367;BME280;45163;47.690;11.770;2023-08-24T00:10:26;93703.84;;;20.85;100.00
59367;BME280;45163;47.690;11.770;2023-08-24T00:12:53;93703.38;;;20.86;100.00
59367;BME280;45163;47.690;11.770;2023-08-24T00:15:19;93697.31;;;20.88;100.00
59367;BME280;45163;47.690;11.770;2023-08-24T00:17:45;93693.50;;;20.85;100.00
59367;BME280;45163;47.690;11.770;2023-08-24T00:20:11;93693.25;;;20.83;100.00
59367;BME280;45163;47.690;11.770;2023-08-24T00:22:40;93694.22;;;20.80;100.00
59367;BME280;45163;47.690;11.770;2023-08-24T00:25:07;93689.97;;;20.85;100.00
59367;BME280;45163;47.690;11.770;2023-08-24T00:27:33;93693.50;;;20.85;100.00
59367;BME280;45163;47.690;11.770;2023-08-24T00:30:00;93684.69;;;20.87;100.00
59367;BME280;45163;47.690;11.770;2023-08-24T00:32:26;93688.06;;;20.65;100.00
59367;BME280;45163;47.690;11.770;2023-08-24T00:34:53;93684.94;;;20.57;100.00
59367;BME280;45163;47.690;11.770;2023-08-24T00:37:19;93689.56;;;20.66;100.00
59367;BME280;45163;47.690;11.770;2023-08-24T00:39:45;93691.13;;;20.73;100.00
59367;BME280;45163;47.690;11.770;2023-08-24T00:42:11;93685.91;;;20.54;100.00
59367;BME280;45163;47.690;11.770;2023-08-24T00:44:41;93688.06;;;20.65;100.00
59367;BME280;45163;47.690;11.770;2023-08-24T00:47:07;93687.25;;;20.64;100.00
59367;BME280;45163;47.690;11.770;2023-08-24T00:49:34;93687.50;;;20.61;100.00
59367;BME280;45163;47.690;11.770;2023-08-24T00:52:01;93677.09;;;20.56;100.00
59367;BME280;45163;47.690;11.770;2023-08-24T00:54:27;93681.50;;;20.42;100.00
59367;BME280;45163;47.690;11.770;2023-08-24T00:56:54;93681.81;;;20.24;100.00
59367;BME280;45163;47.690;11.770;2023-08-24T00:59:20;93677.78;;;20.25;100.00
59367;BME280;45163;47.690;11.770;2023-08-24T01:01:47;93689.63;;;20.25;100.00
59367;BME280;45163;47.690;11.770;2023-08-24T01:04:13;93683.59;;;20.27;100.00
59367;BME280;45163;47.690;11.770;2023-08-24T01:06:39;93687.34;;;20.24;100.00
59367;BME280;45163;47.690;11.770;2023-08-24T01:09:06;93691.66;;;20.25;100.00
59367;BME280;45163;47.690;11.770;2023-08-24T01:16:46;93675.63;;;20.34;100.00
59367;BME280;45163;47.690;11.770;2023-08-24T01:22:07;93674.34;;;20.35;100.00
59367;BME280;45163;47.690;11.770;2023-08-24T01:24:40;93674.09;;;20.07;100.00
59367;BME280;45163;47.690;11.770;2023-08-24T01:27:11;93686.34;;;20.01;100.00
59367;BME280;45163;47.690;11.770;2023-08-24T01:29:38;93689.16;;;20.06;100.00
59367;BME280;45163;47.690;11.770;2023-08-24T01:32:10;93685.63;;;20.06;100.00
59367;BME280;45163;47.690;11.770;2023-08-24T01:34:37;93690.50;;;20.11;100.00
59367;BME280;45163;47.690;11.770;2023-08-24T01:37:06;93689.75;;;19.90;100.00
59367;BME280;45163;47.690;11.770;2023-08-24T01:42:07;93683.09;;;20.02;100.00
59367;BME280;45163;47.690;11.770;2023-08-24T01:44:35;93682.31;;;19.81;100.00
59367;BME280;45163;47.690;11.770;2023-08-24T01:47:04;93689.19;;;19.86;100.00
59367;BME280;45163;47.690;11.770;2023-08-24T01:49:31;93683.66;;;19.86;100.00
59367;BME280;45163;47.690;11.770;2023-08-24T01:51:59;93678.38;;;19.88;100.00
59367;BME280;45163;47.690;11.770;2023-08-24T01:54:26;93680.66;;;19.89;100.00
59367;BME280;45163;47.690;11.770;2023-08-24T01:56:52;93680.66;;;19.89;100.00
59367;BME280;45163;47.690;11.770;2023-08-24T01:59:18;93673.41;;;19.92;100.00
59367;BME280;45163;47.690;11.770;2023-08-24T02:01:44;93672.34;;;19.89;100.00
59367;BME280;45163;47.690;11.770;2023-08-24T02:04:10;93670.56;;;19.86;100.00
59367;BME280;45163;47.690;11.770;2023-08-24T02:06:36;93660.25;;;19.87;100.00
59367;BME280;45163;47.690;11.770;2023-08-24T02:09:02;93658.94;;;19.82;100.00
59367;BME280;45163;47.690;11.770;2023-08-24T02:11:28;93655.13;;;19.80;100.00
59367;BME280;45163;47.690;11.770;2023-08-24T02:13:54;93659.91;;;19.79;100.00
59367;BME280;45163;47.690;11.770;2023-08-24T02:16:20;93656.56;;;19.75;100.00
59367;BME280;45163;47.690;11.770;2023-08-24T02:18:46;93651.19;;;19.66;100.00
59367;BME280;45163;47.690;11.770;2023-08-24T02:21:12;93650.22;;;19.69;100.00
59367;BME280;45163;47.690;11.770;2023-08-24T02:23:40;93659.75;;;19.68;100.00
59367;BME280;45163;47.690;11.770;2023-08-24T02:26:06;93655.47;;;19.67;100.00
59367;BME280;45163;47.690;11.770;2023-08-24T02:28:33;93648.78;;;19.59;100.00
59367;BME280;45163;47.690;11.770;2023-08-24T02:31:03;93651.69;;;19.50;100.00
59367;BME280;45163;47.690;11.770;2023-08-24T02:33:30;93656.53;;;19.55;100.00
59367;BME280;45163;47.690;11.770;2023-08-24T02:35:56;93654.66;;;19.61;100.00
59367;BME280;45163;47.690;11.770;2023-08-24T02:38:23;93657.03;;;19.53;100.00
59367;BME280;45163;47.690;11.770;2023-08-24T02:40:49;93653.78;;;19.55;100.00
59367;BME280;45163;47.690;11.770;2023-08-24T02:43:25;93667.63;;;19.55;100.00
59367;BME280;45163;47.690;11.770;2023-08-24T02:45:53;93650.81;;;19.58;100.00
59367;BME280;45163;47.690;11.770;2023-08-24T02:48:19;93657.09;;;19.59;100.00
59367;BME280;45163;47.690;11.770;2023-08-24T02:50:48;93649.69;;;19.50;100.00
59367;BME280;45163;47.690;11.770;2023-08-24T02:53:14;93656.47;;;19.49;100.00
59367;BME280;45163;47.690;11.770;2023-08-24T02:55:40;93645.06;;;19.41;100.00
59367;BME280;45163;47.690;11.770;2023-08-24T02:58:05;93650.38;;;19.45;100.00
59367;BME280;45163;47.690;11.770;2023-08-24T03:00:31;93646.00;;;19.38;100.00
59367;BME280;45163;47.690;11.770;2023-08-24T03:02:58;93638.75;;;19.41;100.00
59367;BME280;45163;47.690;11.770;2023-08-24T03:05:24;93645.94;;;19.33;100.00
59367;BME280;45163;47.690;11.770;2023-08-24T03:07:50;93642.31;;;19.27;100.00
59367;BME280;45163;47.690;11.770;2023-08-24T03:10:16;93640.25;;;19.22;100.00
59367;BME280;45163;47.690;11.770;2023-08-24T03:12:42;93637.97;;;19.20;100.00
59367;BME280;45163;47.690;11.770;2023-08-24T03:15:08;93638.53;;;19.24;100.00
59367;BME280;45163;47.690;11.770;2023-08-24T03:17:34;93637.78;;;19.24;100.00
59367;BME280;45163;47.690;11.770;2023-08-24T03:20:00;93637.22;;;19.20;100.00
59367;BME280;45163;47.690;11.770;2023-08-24T03:22:26;93632.78;;;19.07;100.00
59367;BME280;45163;47.690;11.770;2023-08-24T03:24:52;93639.31;;;19.10;100.00
59367;BME280;45163;47.690;11.770;2023-08-24T03:27:18;93636.56;;;19.10;100.00
59367;BME280;45163;47.690;11.770;2023-08-24T03:29:44;93632.78;;;19.07;100.00
59367;BME280;45163;47.690;11.770;2023-08-24T03:32:10;93637.13;;;19.14;100.00
59367;BME280;45163;47.690;11.770;2023-08-24T03:34:36;93631.00;;;19.25;100.00
59367;BME280;45163;47.690;11.770;2023-08-24T03:37:02;93628.91;;;19.20;100.00
59367;BME280;45163;47.690;11.770;2023-08-24T03:39:28;93626.91;;;19.20;100.00
59367;BME280;45163;47.690;11.770;2023-08-24T03:41:54;93620.69;;;19.25;100.00
59367;BME280;45163;47.690;11.770;2023-08-24T03:44:20;93617.91;;;19.25;100.00
59367;BME280;45163;47.690;11.770;2023-08-24T03:46:47;93618.28;;;19.33;100.00
59367;BME280;45163;47.690;11.770;2023-08-24T03:49:13;93616.00;;;19.31;100.00
59367;BME280;45163;47.690;11.770;2023-08-24T03:51:39;93617.97;;;19.31;100.00
59367;BME280;45163;47.690;11.770;2023-08-24T03:54:05;93620.06;;;19.36;100.00
59367;BME280;45163;47.690;11.770;2023-08-24T03:56:31;93619.78;;;19.34;100.00
59367;BME280;45163;47.690;11.770;2023-08-24T03:58:58;93617.16;;;19.25;100.00
59367;BME280;45163;47.690;11.770;2023-08-24T04:01:23;93621.94;;;19.24;100.00
59367;BME280;45163;47.690;11.770;2023-08-24T04:03:49;93621.78;;;19.13;100.00
59367;BME280;45163;47.690;11.770;2023-08-24T04:06:18;93619.75;;;19.13;100.00
59367;BME280;45163;47.690;11.770;2023-08-24T04:08:45;93617.84;;;19.20;100.00
59367;BME280;45163;47.690;11.770;2023-08-24T04:11:11;93622.13;;;19.21;100.00
59367;BME280;45163;47.690;11.770;2023-08-24T04:13:37;93624.13;;;19.20;100.00
59367;BME280;45163;47.690;11.770;2023-08-24T04:16:03;93620.53;;;19.14;100.00
59367;BME280;45163;47.690;11.770;2023-08-24T04:18:29;93623.16;;;19.03;100.00
59367;BME280;45163;47.690;11.770;2023-08-24T04:20:55;93621.03;;;18.98;100.00
59367;BME280;45163;47.690;11.770;2023-08-24T04:23:25;93631.28;;;18.91;100.00
59367;BME280;45163;47.690;11.770;2023-08-24T04:25:53;93623.94;;;18.88;100.00
59367;BME280;45163;47.690;11.770;2023-08-24T04:28:19;93622.16;;;18.85;100.00
59367;BME280;45163;47.690;11.770;2023-08-24T04:30:50;93622.59;;;18.84;100.00
59367;BME280;45163;47.690;11.770;2023-08-24T04:33:16;93629.88;;;18.81;100.00
59367;BME280;45163;47.690;11.770;2023-08-24T04:35:42;93620.03;;;18.80;100.00
59367;BME280;45163;47.690;11.770;2023-08-24T04:38:08;93624.91;;;18.85;100.00
59367;BME280;45163;47.690;11.770;2023-08-24T04:40:54;93622.41;;;18.87;100.00
59367;BME280;45163;47.690;11.770;2023-08-24T04:43:21;93626.56;;;18.77;100.00
59367;BME280;45163;47.690;11.770;2023-08-24T04:45:52;93627.47;;;18.89;100.00
59367;BME280;45163;47.690;11.770;2023-08-24T04:48:22;93628.38;;;19.01;100.00
59367;BME280;45163;47.690;11.770;2023-08-24T04:50:49;93625.78;;;19.12;100.00
59367;BME280;45163;47.690;11.770;2023-08-24T04:53:17;93633.47;;;19.23;100.00
59367;BME280;45163;47.690;11.770;2023-08-24T04:55:44;93621.84;;;19.19;100.00
59367;BME280;45163;47.690;11.770;2023-08-24T04:58:11;93625.66;;;19.21;100.00
59367;BME280;45163;47.690;11.770;2023-08-24T05:00:38;93627.47;;;19.24;100.00
59367;BME280;45163;47.690;11.770;2023-08-24T05:03:04;93618.97;;;19.28;100.00
59367;BME280;45163;47.690;11.770;2023-08-24T05:05:32;93621.84;;;19.19;100.00
59367;BME280;45163;47.690;11.770;2023-08-24T05:07:59;93618.38;;;19.03;100.00
59367;BME280;45163;47.690;11.770;2023-08-24T05:10:25;93624.41;;;19.22;100.00
59367;BME280;45163;47.690;11.770;2023-08-24T05:12:51;93625.53;;;19.30;100.00
59367;BME280;45163;47.690;11.770;2023-08-24T05:15:17;93629.69;;;19.40;100.00
59367;BME280;45163;47.690;11.770;2023-08-24T05:17:43;93627.38;;;19.39;100.00
59367;BME280;45163;47.690;11.770;2023-08-24T05:20:09;93623.97;;;19.44;100.00
59367;BME280;45163;47.690;11.770;2023-08-24T05:22:36;93627.34;;;19.54;100.00
59367;BME280;45163;47.690;11.770;2023-08-24T05:25:03;93627.59;;;19.56;100.00
59367;BME280;45163;47.690;11.770;2023-08-24T05:27:29;93627.78;;;19.67;100.00
59367;BME280;45163;47.690;11.770;2023-08-24T05:29:55;93627.72;;;19.82;100.00
59367;BME280;45163;47.690;11.770;2023-08-24T05:32:21;93624.06;;;19.96;100.00
59367;BME280;45163;47.690;11.770;2023-08-24T05:34:47;93617.91;;;20.07;100.00
59367;BME280;45163;47.690;11.770;2023-08-24T05:37:13;93617.53;;;20.20;100.00
59367;BME280;45163;47.690;11.770;2023-08-24T05:39:39;93624.41;;;20.30;100.00
59367;BME280;45163;47.690;11.770;2023-08-24T05:42:05;93616.47;;;20.43;100.00
59367;BME280;45163;47.690;11.770;2023-08-24T05:44:31;93613.69;;;20.43;100.00
59367;BME280;45163;47.690;11.770;2023-08-24T05:46:57;93613.06;;;20.54;100.00
59367;BME280;45163;47.690;11.770;2023-08-24T05:49:23;93607.53;;;20.59;100.00
59367;BME280;45163;47.690;11.770;2023-08-24T05:51:51;93611.13;;;20.66;100.00
59367;BME280;45163;47.690;11.770;2023-08-24T05:54:17;93615.00;;;20.74;100.00
59367;BME280;45163;47.690;11.770;2023-08-24T05:56:47;93611.31;;;20.94;100.00
59367;BME280;45163;47.690;11.770;2023-08-24T05:59:14;93611.41;;;21.05;100.00
59367;BME280;45163;47.690;11.770;2023-08-24T06:01:40;93617.25;;;21.12;100.00
59367;BME280;45163;47.690;11.770;2023-08-24T06:04:08;93614.19;;;21.48;100.00
59367;BME280;45163;47.690;11.770;2023-08-24T06:06:35;93606.75;;;21.82;100.00
59367;BME280;45163;47.690;11.770;2023-08-24T06:09:01;93602.31;;;22.12;100.00
59367;BME280;45163;47.690;11.770;2023-08-24T06:11:30;93604.63;;;22.42;100.00
59367;BME280;45163;47.690;11.770;2023-08-24T06:13:56;93592.75;;;22.58;100.00
59367;BME280;45163;47.690;11.770;2023-08-24T06:16:22;93590.97;;;22.83;100.00
59367;BME280;45163;47.690;11.770;2023-08-24T06:18:48;93598.00;;;23.24;100.00
59367;BME280;45163;47.690;11.770;2023-08-24T06:21:16;93591.84;;;23.59;100.00
59367;BME280;45163;47.690;11.770;2023-08-24T06:23:42;93592.34;;;24.16;100.00
59367;BME280;45163;47.690;11.770;2023-08-24T06:26:08;93584.63;;;24.39;100.00
59367;BME280;45163;47.690;11.770;2023-08-24T06:28:34;93575.13;;;24.83;100.00
59367;BME280;45163;47.690;11.770;2023-08-24T06:31:00;93566.84;;;25.02;100.00
59367;BME280;45163;47.690;11.770;2023-08-24T06:33:33;93569.03;;;25.15;100.00
59367;BME280;45163;47.690;11.770;2023-08-24T06:35:59;93561.72;;;25.06;100.00
59367;BME280;45163;47.690;11.770;2023-08-24T06:38:25;93560.53;;;25.50;100.00
59367;BME280;45163;47.690;11.770;2023-08-24T06:40:51;93556.03;;;26.04;100.00
59367;BME280;45163;47.690;11.770;2023-08-24T06:43:17;93555.66;;;26.32;100.00
59367;BME280;45163;47.690;11.770;2023-08-24T06:45:44;93555.09;;;26.71;100.00
59367;BME280;45163;47.690;11.770;2023-08-24T06:48:10;93549.69;;;27.19;100.00
59367;BME280;45163;47.690;11.770;2023-08-24T06:50:36;93550.88;;;27.50;100.00
59367;BME280;45163;47.690;11.770;2023-08-24T06:53:03;93550.16;;;27.76;100.00
59367;BME280;45163;47.690;11.770;2023-08-24T06:55:29;93545.66;;;28.07;100.00
59367;BME280;45163;47.690;11.770;2023-08-24T06:57:55;93540.97;;;28.23;100.00
59367;BME280;45163;47.690;11.770;2023-08-24T07:00:22;93539.88;;;28.60;100.00
59367;BME280;45163;47.690;11.770;2023-08-24T07:02:49;93538.47;;;27.72;100.00
59367;BME280;45163;47.690;11.770;2023-08-24T07:05:16;93542.38;;;28.16;100.00
59367;BME280;45163;47.690;11.770;2023-08-24T07:07:45;93529.88;;;28.72;100.00
59367;BME280;45163;47.690;11.770;2023-08-24T07:10:11;93524.97;;;29.36;100.00
59367;BME280;45163;47.690;11.770;2023-08-24T07:12:37;93523.94;;;29.25;100.00
59367;BME280;45163;47.690;11.770;2023-08-24T07:15:07;93521.69;;;29.89;100.00
59367;BME280;45163;47.690;11.770;2023-08-24T07:17:34;93511.06;;;30.02;100.00
59367;BME280;45163;47.690;11.770;2023-08-24T07:20:00;93513.44;;;30.42;100.00
59367;BME280;45163;47.690;11.770;2023-08-24T07:22:25;93513.78;;;30.39;100.00
59367;BME280;45163;47.690;11.770;2023-08-24T07:24:54;93506.34;;;31.18;100.00
59367;BME280;45163;47.690;11.770;2023-08-24T07:27:20;93504.28;;;31.34;100.00
59367;BME280;45163;47.690;11.770;2023-08-24T07:29:47;93509.50;;;30.53;100.00
59367;BME280;45163;47.690;11.770;2023-08-24T07:32:13;93504.66;;;31.22;100.00
59367;BME280;45163;47.690;11.770;2023-08-24T07:34:39;93504.28;;;31.49;100.00
59367;BME280;45163;47.690;11.770;2023-08-24T07:37:05;93495.53;;;31.85;100.00
59367;BME280;45163;47.690;11.770;2023-08-24T07:39:31;93491.50;;;32.04;100.00
59367;BME280;45163;47.690;11.770;2023-08-24T07:41:58;93489.44;;;31.18;100.00
59367;BME280;45163;47.690;11.770;2023-08-24T07:44:24;93484.69;;;31.51;100.00
59367;BME280;45163;47.690;11.770;2023-08-24T07:46:50;93488.63;;;32.19;100.00
59367;BME280;45163;47.690;11.770;2023-08-24T07:49:16;93483.25;;;31.98;100.00
59367;BME280;45163;47.690;11.770;2023-08-24T07:51:42;93486.97;;;32.48;100.00
59367;BME280;45163;47.690;11.770;2023-08-24T07:54:13;93481.81;;;32.80;97.01
59367;BME280;45163;47.690;11.770;2023-08-24T07:56:39;93488.00;;;32.86;93.88
59367;BME280;45163;47.690;11.770;2023-08-24T07:59:05;93475.34;;;32.94;97.36
59367;BME280;45163;47.690;11.770;2023-08-24T08:01:31;93483.41;;;32.00;93.97
59367;BME280;45163;47.690;11.770;2023-08-24T08:03:57;93472.34;;;32.27;94.89
59367;BME280;45163;47.690;11.770;2023-08-24T08:06:23;93469.59;;;33.02;91.09
59367;BME280;45163;47.690;11.770;2023-08-24T08:08:50;93464.69;;;33.80;82.80
59367;BME280;45163;47.690;11.770;2023-08-24T08:11:17;93469.00;;;33.98;80.17
59367;BME280;45163;47.690;11.770;2023-08-24T08:13:43;93462.97;;;34.56;81.94
59367;BME280;45163;47.690;11.770;2023-08-24T08:16:10;93459.72;;;34.69;80.05
59367;BME280;45163;47.690;11.770;2023-08-24T08:18:36;93469.00;;;35.06;78.71
59367;BME280;45163;47.690;11.770;2023-08-24T08:21:16;93463.78;;;35.12;76.48
59367;BME280;45163;47.690;11.770;2023-08-24T08:23:45;93454.31;;;34.54;75.90
59367;BME280;45163;47.690;11.770;2023-08-24T08:26:12;93450.38;;;34.86;73.71
59367;BME280;45163;47.690;11.770;2023-08-24T08:28:41;93454.91;;;35.55;73.55
59367;BME280;45163;47.690;11.770;2023-08-24T08:31:07;93459.22;;;36.24;70.23
59367;BME280;45163;47.690;11.770;2023-08-24T08:33:33;93441.59;;;36.15;69.19
59367;BME280;45163;47.690;11.770;2023-08-24T08:36:02;93447.50;;;35.03;70.06
59367;BME280;45163;47.690;11.770;2023-08-24T08:38:31;93441.59;;;36.15;68.02
59367;BME280;45163;47.690;11.770;2023-08-24T08:41:02;93438.44;;;36.21;67.07
59367;BME280;45163;47.690;11.770;2023-08-24T08:43:29;93429.91;;;36.21;65.62
59367;BME280;45163;47.690;11.770;2023-08-24T08:45:56;93427.72;;;36.00;66.84
59367;BME280;45163;47.690;11.770;2023-08-24T08:48:24;93432.94;;;36.04;63.26
59367;BME280;45163;47.690;11.770;2023-08-24T08:50:52;93430.38;;;36.17;65.12
59367;BME280;45163;47.690;11.770;2023-08-24T08:53:22;93430.19;;;37.17;61.39
59367;BME280;45163;47.690;11.770;2023-08-24T08:55:51;93428.25;;;37.09;58.64
59367;BME280;45163;47.690;11.770;2023-08-24T08:58:19;93425.69;;;37.35;56.90
59367;BME280;45163;47.690;11.770;2023-08-24T09:00:46;93429.63;;;37.73;56.09
59367;BME280;45163;47.690;11.770;2023-08-24T09:03:16;93433.88;;;37.50;52.92
59367;BME280;45163;47.690;11.770;2023-08-24T09:05:43;93422.56;;;37.74;53.90
59367;BME280;45163;47.690;11.770;2023-08-24T09:08:12;93413.28;;;37.30;48.18
59367;BME280;45163;47.690;11.770;2023-08-24T09:10:38;93414.38;;;37.25;57.13
59367;BME280;45163;47.690;11.770;2023-08-24T09:13:04;93422.06;;;37.44;56.41
59367;BME280;45163;47.690;11.770;2023-08-24T09:15:35;93410.03;;;38.33;48.12
59367;BME280;45163;47.690;11.770;2023-08-24T09:18:04;93411.16;;;37.41;49.57
59367;BME280;45163;47.690;11.770;2023-08-24T09:20:30;93409.56;;;38.04;53.62
59367;BME280;45163;47.690;11.770;2023-08-24T09:22:57;93408.31;;;37.95;54.95
59367;BME280;45163;47.690;11.770;2023-08-24T09:25:24;93401.34;;;38.31;51.67
59367;BME280;45163;47.690;11.770;2023-08-24T09:28:10;93403.44;;;37.86;54.23
59367;BME280;45163;47.690;11.770;2023-08-24T09:30:36;93406.31;;;37.64;54.58
59367;BME280;45163;47.690;11.770;2023-08-24T09:33:04;93402.22;;;37.25;55.69
59367;BME280;45163;47.690;11.770;2023-08-24T09:35:34;93399.69;;;37.50;59.46
59367;BME280;45163;47.690;11.770;2023-08-24T09:38:20;93398.41;;;37.96;57.89
59367;BME280;45163;47.690;11.770;2023-08-24T09:40:53;93395.91;;;37.91;62.23
59367;BME280;45163;47.690;11.770;2023-08-24T09:43:23;93399.78;;;37.74;65.94
59367;BME280;45163;47.690;11.770;2023-08-24T09:45:56;93396.56;;;37.68;66.64
59367;BME280;45163;47.690;11.770;2023-08-24T09:48:23;93399.34;;;37.56;68.18
59367;BME280;45163;47.690;11.770;2023-08-24T09:50:50;93385.75;;;38.44;65.39
59367;BME280;45163;47.690;11.770;2023-08-24T09:55:51;93384.91;;;38.65;63.56
59367;BME280;45163;47.690;11.770;2023-08-24T09:58:25;93381.72;;;38.14;67.60
59367;BME280;45163;47.690;11.770;2023-08-24T10:00:52;93378.81;;;38.71;64.46
59367;BME280;45163;47.690;11.770;2023-08-24T10:03:21;93372.09;;;39.25;62.38
59367;BME280;45163;47.690;11.770;2023-08-24T10:05:57;93368.69;;;39.52;61.11
59367;BME280;45163;47.690;11.770;2023-08-24T10:08:29;93362.84;;;38.77;62.26
59367;BME280;45163;47.690;11.770;2023-08-24T10:10:56;93371.75;;;39.07;59.00
59367;BME280;45163;47.690;11.770;2023-08-24T10:13:41;93359.56;;;39.30;59.93
59367;BME280;45163;47.690;11.770;2023-08-24T10:16:09;93357.19;;;39.38;55.97
59367;BME280;45163;47.690;11.770;2023-08-24T10:18:40;93353.22;;;39.31;54.27
59367;BME280;45163;47.690;11.770;2023-08-24T10:21:07;93355.13;;;38.33;59.43
59367;BME280;45163;47.690;11.770;2023-08-24T10:23:35;93352.31;;;37.88;60.68
59367;BME280;45163;47.690;11.770;2023-08-24T10:26:06;93351.22;;;36.64;63.86
59367;BME280;45163;47.690;11.770;2023-08-24T10:28:33;93350.56;;;36.35;70.27
59367;BME280;45163;47.690;11.770;2023-08-24T10:31:00;93338.44;;;35.84;72.83
59367;BME280;45163;47.690;11.770;2023-08-24T10:33:27;93338.22;;;35.51;72.47
59367;BME280;45163;47.690;11.770;2023-08-24T10:35:54;93340.09;;;35.77;71.82
59367;BME280;45163;47.690;11.770;2023-08-24T10:38:24;93337.97;;;36.48;69.08
59367;BME280;45163;47.690;11.770;2023-08-24T10:40:52;93332.66;;;35.62;72.32
59367;BME280;45163;47.690;11.770;2023-08-24T10:43:18;93325.31;;;36.92;68.17
59367;BME280;45163;47.690;11.770;2023-08-24T10:45:58;93325.16;;;36.89;65.35
59367;BME280;45163;47.690;11.770;2023-08-24T10:48:28;93321.63;;;36.58;69.55
59367;BME280;45163;47.690;11.770;2023-08-24T10:53:40;93307.59;;;38.14;59.11
59367;BME280;45163;47.690;11.770;2023-08-24T10:56:10;93311.94;;;39.09;51.09
59367;BME280;45163;47.690;11.770;2023-08-24T10:58:37;93313.16;;;39.18;50.54
59367;BME280;45163;47.690;11.770;2023-08-24T11:01:03;93297.03;;;39.22;49.24
59367;BME280;45163;47.690;11.770;2023-08-24T11:03:31;93303.06;;;39.28;49.26
59367;BME280;45163;47.690;11.770;2023-08-24T11:06:00;93294.16;;;40.38;45.06
59367;BME280;45163;47.690;11.770;2023-08-24T11:08:48;93288.00;;;39.40;44.01
59367;BME280;45163;47.690;11.770;2023-08-24T11:11:23;93283.19;;;39.68;44.71
59367;BME280;45163;47.690;11.770;2023-08-24T11:14:15;93278.06;;;39.41;41.47
59367;BME280;45163;47.690;11.770;2023-08-24T11:16:43;93272.25;;;38.66;46.48
59367;BME280;45163;47.690;11.770;2023-08-24T11:19:13;93274.13;;;37.58;48.50
59367;BME280;45163;47.690;11.770;2023-08-24T11:21:40;93277.84;;;38.29;46.40
59367;BME280;45163;47.690;11.770;2023-08-24T11:24:06;93267.09;;;38.39;46.78
59367;BME280;45163;47.690;11.770;2023-08-24T11:26:34;93259.44;;;39.40;41.67
59367;BME280;45163;47.690;11.770;2023-08-24T11:29:04;93258.66;;;40.29;40.05
59367;BME280;45163;47.690;11.770;2023-08-24T11:34:07;93244.03;;;40.92;35.94
59367;BME280;45163;47.690;11.770;2023-08-24T11:36:47;93246.81;;;39.82;38.23
59367;BME280;45163;47.690;11.770;2023-08-24T11:39:20;93245.44;;;40.77;37.47
59367;BME280;45163;47.690;11.770;2023-08-24T11:42:08;93246.59;;;40.86;34.52
59367;BME280;45163;47.690;11.770;2023-08-24T11:44:46;93244.84;;;41.22;34.90
59367;BME280;45163;47.690;11.770;2023-08-24T11:47:12;93236.00;;;42.07;32.08
59367;BME280;45163;47.690;11.770;2023-08-24T11:49:38;93240.38;;;41.78;32.00
59367;BME280;45163;47.690;11.770;2023-08-24T11:52:04;93223.22;;;41.94;31.33
59367;BME280;45163;47.690;11.770;2023-08-24T11:54:33;93221.28;;;42.15;31.71
59367;BME280;45163;47.690;11.770;2023-08-24T11:56:59;93218.97;;;41.95;31.09
59367;BME280;45163;47.690;11.770;2023-08-24T11:59:26;93219.59;;;42.10;31.51
59367;BME280;45163;47.690;11.770;2023-08-24T12:01:52;93224.81;;;41.09;31.83
59367;BME280;45163;47.690;11.770;2023-08-24T12:04:18;93222.47;;;42.10;28.98
59367;BME280;45163;47.690;11.770;2023-08-24T12:06:45;93228.56;;;42.18;30.84
59367;BME280;45163;47.690;11.770;2023-08-24T12:09:11;93222.56;;;41.50;32.76
59367;BME280;45163;47.690;11.770;2023-08-24T12:11:37;93220.63;;;41.39;35.00
59367;BME280;45163;47.690;11.770;2023-08-24T12:14:05;93211.75;;;42.10;34.19
59367;BME280;45163;47.690;11.770;2023-08-24T12:16:33;93210.63;;;42.17;35.68
59367;BME280;45163;47.690;11.770;2023-08-24T12:19:00;93209.16;;;42.16;37.46
59367;BME280;45163;47.690;11.770;2023-08-24T12:21:29;93209.63;;;42.11;35.47
59367;BME280;45163;47.690;11.770;2023-08-24T12:24:00;93208.31;;;41.82;38.35
59367;BME280;45163;47.690;11.770;2023-08-24T12:26:28;93204.31;;;40.29;39.43
59367;BME280;45163;47.690;11.770;2023-08-24T12:28:59;93195.38;;;41.81;38.39
59367;BME280;45163;47.690;11.770;2023-08-24T12:31:29;93197.28;;;41.61;39.77
59367;BME280;45163;47.690;11.770;2023-08-24T12:34:06;93188.72;;;41.47;40.60
59367;BME280;45163;47.690;11.770;2023-08-24T12:36:34;93193.31;;;41.38;41.69
59367;BME280;45163;47.690;11.770;2023-08-24T12:39:02;93186.66;;;41.34;43.35
59367;BME280;45163;47.690;11.770;2023-08-24T12:41:30;93177.06;;;41.88;41.12
59367;BME280;45163;47.690;11.770;2023-08-24T12:43:56;93174.63;;;42.46;37.80
59367;BME280;45163;47.690;11.770;2023-08-24T12:46:23;93186.03;;;41.81;38.17
59367;BME280;45163;47.690;11.770;2023-08-24T12:48:50;93173.88;;;41.66;40.49
59367;BME280;45163;47.690;11.770;2023-08-24T12:51:16;93177.59;;;41.69;39.78
59367;BME280;45163;47.690;11.770;2023-08-24T12:53:43;93168.13;;;41.50;42.09
59367;BME280;45163;47.690;11.770;2023-08-24T12:56:09;93173.16;;;40.63;45.06
59367;BME280;45163;47.690;11.770;2023-08-24T12:58:35;93169.34;;;40.58;45.07
59367;BME280;45163;47.690;11.770;2023-08-24T13:01:01;93162.56;;;40.38;41.77
59367;BME280;45163;47.690;11.770;2023-08-24T13:03:28;93163.50;;;39.88;42.90